Time;durP1;ratioP1;P1;durP2;ratioP2;P2;SDS_P1;SDS_P2;PMS_P1;PMS_P2;Temp;Humidity;BMP_temperature;BMP_pressure;BME280_temperature;BME280_humidity;BME280_pressure;Samples;Min_cycle;Max_cycle;Signal;HPM_P1;HPM_P2
2022/07/15 00:00:06;;;;;;;5.17;2.90;;;;;;;27.01;55.52;101414.95;1698738;84;21010;-50
2022/07/15 00:02:33;;;;;;;5.90;2.77;;;;;;;27.00;55.59;101423.06;1697337;84;21002;-49
2022/07/15 00:05:00;;;;;;;5.12;2.40;;;;;;;26.95;55.67;101420.78;1697974;84;21034;-49
2022/07/15 00:07:27;;;;;;;5.17;2.77;;;;;;;26.94;55.87;101423.08;1697796;83;21049;-50
2022/07/15 00:12:42;;;;;;;5.37;2.90;;;;;;;26.89;56.04;101427.95;1697995;84;21026;-49
2022/07/15 00:15:10;;;;;;;8.15;2.92;;;;;;;26.86;56.05;101420.16;1698051;83;20974;-51
2022/07/15 00:17:40;;;;;;;7.17;3.00;;;;;;;26.85;55.96;101425.16;1736188;81;21027;-50
2022/07/15 00:20:09;;;;;;;5.05;2.65;;;;;;;26.84;56.08;101418.10;1734687;81;21027;-49
2022/07/15 00:22:37;;;;;;;4.65;2.50;;;;;;;26.83;56.11;101420.39;1734126;81;21038;-51
2022/07/15 00:25:05;;;;;;;3.83;2.62;;;;;;;27.03;55.39;101418.34;1735134;81;21038;-53
2022/07/15 00:27:32;;;;;;;3.40;2.20;;;;;;;26.94;55.37;101420.41;1736132;82;21054;-50
2022/07/15 00:29:58;;;;;;;5.97;2.75;;;;;;;26.81;55.98;101415.66;1696959;84;21511;-54
2022/07/15 00:32:25;;;;;;;6.62;2.52;;;;;;;26.80;56.33;101410.45;1697426;83;21019;-50
2022/07/15 00:34:52;;;;;;;5.28;2.20;;;;;;;26.78;56.43;101407.91;1697736;83;21085;-52
2022/07/15 00:37:20;;;;;;;5.28;2.47;;;;;;;26.78;56.38;101415.06;1697627;83;21042;-52
2022/07/15 00:39:47;;;;;;;4.10;2.50;;;;;;;26.77;56.29;101416.05;1698823;84;21090;-52
2022/07/15 00:45:00;;;;;;;2.72;1.87;;;;;;;26.74;56.19;101415.80;1705804;84;21077;-50
2022/07/15 00:47:27;;;;;;;2.45;2.10;;;;;;;26.73;56.15;101414.59;1698129;84;21526;-49
2022/07/15 00:49:54;;;;;;;6.22;2.20;;;;;;;26.71;55.85;101411.98;1700036;83;21042;-57
2022/07/15 00:52:21;;;;;;;9.18;2.72;;;;;;;26.71;55.69;101409.31;1695541;84;21490;-49
2022/07/15 00:54:49;;;;;;;8.98;3.02;;;;;;;26.70;55.69;101415.64;1703116;83;21621;-50
2022/07/15 00:57:16;;;;;;;4.53;2.98;;;;;;;26.68;55.75;101410.91;1734842;81;21004;-49
2022/07/15 00:59:43;;;;;;;7.00;3.47;;;;;;;26.68;56.05;101402.04;1732769;81;21047;-49
2022/07/15 01:02:10;;;;;;;10.45;3.47;;;;;;;26.66;56.30;101403.50;1731693;81;20996;-51
2022/07/15 01:04:39;;;;;;;4.50;2.65;;;;;;;26.66;56.24;101405.31;1731058;81;21018;-50
2022/07/15 01:07:06;;;;;;;10.30;3.22;;;;;;;26.64;56.03;101405.44;1698430;83;21021;-48
2022/07/15 01:09:33;;;;;;;7.95;3.12;;;;;;;26.63;56.09;101403.73;1698865;84;21081;-52
2022/07/15 01:12:00;;;;;;;4.47;2.75;;;;;;;26.62;56.31;101396.70;1700798;84;21062;-52
2022/07/15 01:14:27;;;;;;;8.95;3.05;;;;;;;26.62;56.59;101398.05;1696935;83;21102;-50
2022/07/15 01:16:54;;;;;;;5.20;2.85;;;;;;;26.61;56.74;101394.52;1699793;84;20986;-49
2022/07/15 01:19:21;;;;;;;6.87;3.12;;;;;;;26.61;56.80;101393.66;1700788;84;20999;-51
2022/07/15 01:21:48;;;;;;;5.22;2.70;;;;;;;26.60;56.85;101395.47;1688457;84;21030;-52
2022/07/15 01:24:16;;;;;;;5.00;2.50;;;;;;;26.61;56.75;101392.32;1734555;81;21495;-48
2022/07/15 01:26:48;;;;;;;3.85;2.77;;;;;;;26.60;56.74;101394.13;1657653;86;21090;-50
2022/07/15 01:29:18;;;;;;;6.08;2.40;;;;;;;26.59;56.70;101388.45;1659886;85;21109;-52
2022/07/15 01:31:45;;;;;;;2.65;2.30;;;;;;;26.58;56.72;101385.39;1659425;86;21018;-49
2022/07/15 01:34:12;;;;;;;3.55;2.42;;;;;;;26.57;56.65;101386.86;1659574;86;21085;-51
2022/07/15 01:36:40;;;;;;;5.30;2.30;;;;;;;26.57;56.47;101389.05;1659375;86;20978;-48
2022/07/15 01:39:07;;;;;;;5.95;3.27;;;;;;;26.56;56.73;101384.67;1659882;86;21506;-49
2022/07/15 01:41:34;;;;;;;6.15;3.20;;;;;;;26.57;57.03;101382.86;1659570;86;21070;-49
2022/07/15 01:44:02;;;;;;;9.23;4.05;;;;;;;26.57;57.28;101386.86;1659519;86;21502;-48
2022/07/15 01:46:29;;;;;;;4.90;2.95;;;;;;;26.58;57.54;101387.24;1659543;86;21004;-50
2022/07/15 01:51:52;;;;;;;8.15;2.80;;;;;;;26.57;57.89;101386.86;1659860;86;21038;-53
2022/07/15 01:54:19;;;;;;;6.22;3.25;;;;;;;26.55;57.74;101395.47;1659806;86;21065;-53
2022/07/15 01:56:46;;;;;;;2.83;2.47;;;;;;;26.54;57.84;101389.28;1659750;86;21045;-50
2022/07/15 01:59:15;;;;;;;4.45;2.60;;;;;;;26.53;57.63;101381.40;1659522;86;21114;-52
2022/07/15 02:01:42;;;;;;;5.00;2.50;;;;;;;26.51;57.37;101378.00;1659942;86;21077;-49
2022/07/15 02:04:12;;;;;;;6.47;2.65;;;;;;;26.49;57.36;101388.80;1659641;86;21045;-49
2022/07/15 02:06:40;;;;;;;6.40;2.80;;;;;;;26.49;57.50;101387.95;1659786;86;20998;-50
2022/07/15 02:09:08;;;;;;;6.03;2.27;;;;;;;26.46;57.47;101383.69;1653857;86;21198;-51
2022/07/15 02:11:38;;;;;;;3.98;2.45;;;;;;;26.46;57.51;101385.53;1659610;86;21075;-52
2022/07/15 02:14:05;;;;;;;3.30;2.10;;;;;;;26.43;57.52;101383.09;1660047;86;21035;-50
2022/07/15 02:16:33;;;;;;;3.95;2.15;;;;;;;26.41;57.46;101389.89;1659712;86;21074;-55
2022/07/15 02:19:01;;;;;;;5.67;2.40;;;;;;;26.40;57.63;101391.31;1659880;86;21030;-50
2022/07/15 02:21:29;;;;;;;6.45;2.75;;;;;;;26.39;57.72;101394.97;1659800;86;21034;-52
2022/07/15 02:23:59;;;;;;;3.40;2.27;;;;;;;26.37;57.65;101391.58;1720061;81;21853;-51
2022/07/15 02:26:26;;;;;;;5.28;2.40;;;;;;;26.37;57.65;101390.24;1734242;81;21015;-52
2022/07/15 02:28:55;;;;;;;4.35;2.50;;;;;;;26.35;57.59;101386.36;1699896;83;21026;-50
2022/07/15 02:31:24;;;;;;;3.00;2.35;;;;;;;26.33;57.54;101383.44;1700373;82;21038;-52
2022/07/15 02:33:50;;;;;;;6.12;2.27;;;;;;;26.33;57.14;101390.97;1736540;81;21047;-49
2022/07/15 02:36:17;;;;;;;7.78;2.75;;;;;;;26.31;56.87;101395.58;1693126;84;21502;-52
2022/07/15 02:38:45;;;;;;;5.03;2.50;;;;;;;26.30;56.96;101389.00;1698499;84;21069;-49
2022/07/15 02:41:13;;;;;;;5.25;2.72;;;;;;;26.29;57.24;101392.17;1698341;84;21514;-54
2022/07/15 02:43:41;;;;;;;4.35;2.65;;;;;;;26.28;57.34;101397.13;1730148;81;21027;-49
2022/07/15 02:46:09;;;;;;;9.10;2.58;;;;;;;26.28;57.22;101388.27;1701280;84;21042;-51
2022/07/15 02:48:37;;;;;;;4.85;2.60;;;;;;;26.27;57.18;101389.25;1732230;81;21050;-49
2022/07/15 02:51:05;;;;;;;3.08;2.10;;;;;;;26.26;57.40;101383.53;1689737;84;21034;-50
2022/07/15 02:53:34;;;;;;;3.98;2.40;;;;;;;26.26;57.62;101383.53;1699498;84;21046;-52
2022/07/15 02:56:03;;;;;;;3.92;2.30;;;;;;;26.27;57.61;101385.25;1696828;84;21085;-50
2022/07/15 02:58:30;;;;;;;4.97;2.37;;;;;;;26.27;57.57;101385.25;1736250;81;21047;-51
2022/07/15 03:00:59;;;;;;;2.95;2.30;;;;;;;26.28;57.57;101384.27;1732904;81;21014;-52
2022/07/15 03:03:28;;;;;;;3.60;2.50;;;;;;;26.27;57.66;101387.44;1732387;81;21015;-53
2022/07/15 03:05:57;;;;;;;3.65;2.37;;;;;;;26.27;57.57;101382.59;1696429;84;21046;-53
2022/07/15 03:08:24;;;;;;;3.72;2.45;;;;;;;26.27;57.57;101382.59;1751627;81;20975;-52
2022/07/15 03:10:52;;;;;;;5.80;2.47;;;;;;;26.29;57.56;101383.31;1734622;81;21034;-52
2022/07/15 03:13:19;;;;;;;3.90;2.60;;;;;;;26.29;57.50;101383.31;1734190;81;20999;-52
2022/07/15 03:15:46;;;;;;;3.92;2.95;;;;;;;26.29;57.31;101381.98;1725751;81;21054;-50
2022/07/15 03:18:13;;;;;;;10.43;4.30;;;;;;;26.29;57.24;101380.17;1731037;81;21507;-52
2022/07/15 03:20:42;;;;;;;10.58;4.53;;;;;;;26.30;57.14;101376.99;1733737;81;21070;-49
2022/07/15 03:23:09;;;;;;;11.40;4.08;;;;;;;26.31;56.98;101380.05;1696724;84;21514;-50
2022/07/15 03:25:38;;;;;;;4.28;3.05;;;;;;;26.30;57.03;101382.33;1700476;84;21038;-50
2022/07/15 03:28:07;;;;;;;5.72;2.83;;;;;;;26.29;57.12;101379.31;1730910;81;21027;-49
2022/07/15 03:30:36;;;;;;;3.17;2.50;;;;;;;26.28;57.25;101380.27;1697788;84;21037;-50
2022/07/15 03:33:03;;;;;;;3.35;2.75;;;;;;;26.30;57.46;101381.00;1697842;84;21086;-51
2022/07/15 03:35:30;;;;;;;3.50;1.95;;;;;;;26.31;57.69;101381.38;1698181;84;21006;-50
2022/07/15 03:37:58;;;;;;;5.92;2.20;;;;;;;26.31;57.82;101383.56;1697872;84;21534;-51
2022/07/15 03:40:26;;;;;;;5.65;2.60;;;;;;;26.36;58.10;101388.05;1699962;84;21057;-51
2022/07/15 03:42:53;;;;;;;3.60;2.40;;;;;;;26.43;58.09;101391.09;1672950;84;21038;-53
2022/07/15 03:45:20;;;;;;;3.20;2.30;;;;;;;26.56;57.91;101390.01;1700387;84;21070;-50
2022/07/15 03:47:49;;;;;;;4.53;2.08;;;;;;;26.87;57.86;101389.83;1740564;82;21034;-52
2022/07/15 03:50:17;;;;;;;2.47;2.27;;;;;;;27.33;57.44;101395.83;1738155;81;20991;-48
2022/07/15 03:52:45;;;;;;;3.65;2.20;;;;;;;27.94;56.31;101395.66;1731836;81;21071;-50
2022/07/15 03:55:11;;;;;;;2.12;1.87;;;;;;;28.68;54.55;101388.42;1731141;81;21085;-51
2022/07/15 03:57:39;;;;;;;2.92;2.22;;;;;;;29.47;52.40;101396.96;1732003;81;21031;-51
2022/07/15 04:00:08;;;;;;;2.50;2.30;;;;;;;30.30;50.28;101391.41;1733283;81;21054;-49
2022/07/15 04:02:39;;;;;;;2.85;2.27;;;;;;;31.12;48.11;101390.18;1688050;85;21053;-51
2022/07/15 04:05:08;;;;;;;5.03;2.25;;;;;;;31.90;45.97;101389.00;1688288;85;21006;-48
2022/07/15 04:07:34;;;;;;;2.50;2.10;;;;;;;32.45;44.36;101384.24;1688266;85;21045;-49
2022/07/15 04:10:01;;;;;;;2.25;2.00;;;;;;;32.74;43.54;101381.23;1688167;85;21010;-54
2022/07/15 04:12:29;;;;;;;3.45;2.30;;;;;;;32.87;42.98;101381.64;1688127;85;21089;-49
2022/07/15 04:14:56;;;;;;;2.10;2.00;;;;;;;32.86;42.54;101381.28;1685418;85;21033;-52
2022/07/15 04:17:23;;;;;;;3.62;2.30;;;;;;;32.68;42.56;101387.27;1688321;85;21001;-49
2022/07/15 04:19:51;;;;;;;2.58;2.30;;;;;;;32.41;43.00;101383.37;1688149;85;21050;-52
2022/07/15 04:22:18;;;;;;;2.17;1.95;;;;;;;32.08;43.62;101387.19;1688291;85;21613;-51
2022/07/15 04:24:46;;;;;;;2.67;2.35;;;;;;;31.72;44.36;101387.32;1688204;85;20998;-55
2022/07/15 04:27:14;;;;;;;2.37;2.15;;;;;;;31.38;45.03;101384.94;1687778;85;21029;-51
2022/07/15 04:29:41;;;;;;;3.10;2.30;;;;;;;31.05;45.74;101382.39;1688428;85;21583;-49
2022/07/15 04:32:10;;;;;;;2.52;2.20;;;;;;;30.77;46.45;101383.35;1687939;85;21018;-54
2022/07/15 04:34:38;;;;;;;2.70;2.10;;;;;;;30.48;47.18;101380.25;1688394;85;21526;-51
2022/07/15 04:37:05;;;;;;;3.65;2.17;;;;;;;30.24;47.80;101377.19;1688072;85;21041;-55
2022/07/15 04:39:33;;;;;;;3.22;2.40;;;;;;;30.03;48.36;101379.19;1697937;81;20999;-53
2022/07/15 04:42:00;;;;;;;4.22;2.33;;;;;;;29.84;48.83;101381.91;1701961;84;20978;-50
2022/07/15 04:44:27;;;;;;;4.00;2.37;;;;;;;29.67;49.30;101386.59;1701050;84;21519;-50
2022/07/15 04:46:55;;;;;;;7.70;2.17;;;;;;;29.53;49.76;101381.66;1735877;81;21051;-51
2022/07/15 04:52:09;;;;;;;4.60;2.00;;;;;;;29.29;50.44;101386.53;1682764;85;21066;-52
2022/07/15 04:54:36;;;;;;;2.70;1.80;;;;;;;29.18;50.76;101385.33;1687955;85;21487;-51
2022/07/15 04:57:04;;;;;;;2.27;2.08;;;;;;;29.09;51.01;101382.94;1688110;85;21069;-52
2022/07/15 04:59:32;;;;;;;4.75;1.98;;;;;;;29.02;51.27;101380.44;1688177;85;21549;-50
2022/07/15 05:01:59;;;;;;;3.60;2.00;;;;;;;28.97;51.48;101379.50;1687961;85;21078;-51
2022/07/15 05:04:28;;;;;;;2.15;1.82;;;;;;;28.93;51.58;101379.94;1688052;85;21049;-51
2022/07/15 05:06:54;;;;;;;3.33;2.00;;;;;;;28.89;51.74;101382.02;1688079;85;21061;-50
2022/07/15 05:09:21;;;;;;;2.37;2.12;;;;;;;28.87;51.90;101383.98;1688429;85;21081;-53
2022/07/15 05:11:48;;;;;;;3.08;1.90;;;;;;;28.87;52.08;101385.84;1682053;85;21057;-53
2022/07/15 05:14:15;;;;;;;2.95;1.57;;;;;;;28.88;52.56;101383.02;1688331;85;21054;-50
2022/07/15 05:16:42;;;;;;;2.20;1.70;;;;;;;28.98;52.97;101387.05;1688125;85;21090;-55
2022/07/15 05:19:10;;;;;;;3.00;1.70;;;;;;;29.17;52.83;101391.66;1681150;85;21112;-50
2022/07/15 05:21:37;;;;;;;2.67;1.60;;;;;;;29.42;52.43;101392.49;1675336;85;21490;-49
2022/07/15 05:24:05;;;;;;;2.67;2.00;;;;;;;29.70;51.75;101390.32;1680936;85;20994;-51
2022/07/15 05:26:32;;;;;;;2.60;1.87;;;;;;;30.02;50.89;101384.22;1700248;81;21101;-49
2022/07/15 05:28:59;;;;;;;3.72;1.90;;;;;;;30.32;50.12;101385.39;1729430;81;21074;-51
2022/07/15 05:31:26;;;;;;;2.67;1.80;;;;;;;30.56;49.65;101386.26;1699604;84;21568;-51
2022/07/15 05:33:54;;;;;;;3.37;1.80;;;;;;;30.74;49.27;101386.31;1732039;81;21074;-51
2022/07/15 05:36:21;;;;;;;2.20;1.60;;;;;;;30.87;48.85;101386.88;1737047;81;21050;-51
2022/07/15 05:38:48;;;;;;;2.15;1.80;;;;;;;30.98;48.53;101389.34;1701247;84;21062;-52
2022/07/15 05:41:18;;;;;;;2.72;2.10;;;;;;;31.01;48.20;101389.91;1734881;81;21027;-56
2022/07/15 05:43:45;;;;;;;3.75;2.27;;;;;;;31.04;47.84;101399.00;1700095;84;20995;-48
2022/07/15 05:46:12;;;;;;;7.53;2.62;;;;;;;31.04;47.45;101390.09;1696979;84;21058;-48
2022/07/15 05:48:44;;;;;;;4.10;2.40;;;;;;;31.05;47.25;101394.48;1688037;85;21046;-52
2022/07/15 05:51:11;;;;;;;4.70;2.22;;;;;;;31.03;47.27;101384.38;1688289;85;21085;-53
2022/07/15 05:53:38;;;;;;;2.35;1.80;;;;;;;31.03;47.41;101389.76;1688868;85;21073;-50
2022/07/15 05:56:07;;;;;;;3.20;1.85;;;;;;;31.01;47.58;101384.54;1690524;85;21636;-49
2022/07/15 05:58:34;;;;;;;2.83;1.60;;;;;;;31.01;47.89;101383.69;1690694;85;20994;-52
2022/07/15 06:01:01;;;;;;;2.02;1.60;;;;;;;31.01;48.13;101383.69;1690402;85;21029;-52
2022/07/15 06:03:31;;;;;;;5.33;1.40;;;;;;;31.00;48.30;101387.35;1690707;85;21859;-48
2022/07/15 06:05:59;;;;;;;3.02;1.30;;;;;;;30.99;48.45;101386.53;1690611;85;21574;-53
2022/07/15 06:08:27;;;;;;;2.27;1.65;;;;;;;31.06;48.65;101390.30;1690675;85;21073;-52
2022/07/15 06:10:53;;;;;;;2.87;1.50;;;;;;;31.18;48.49;101385.58;1690163;85;21029;-52
2022/07/15 06:13:22;;;;;;;2.12;1.57;;;;;;;31.36;48.25;101391.83;1690580;83;20990;-49
2022/07/15 06:15:49;;;;;;;3.37;1.60;;;;;;;31.57;47.79;101389.73;1690151;85;21085;-52
2022/07/15 06:18:17;;;;;;;2.08;1.70;;;;;;;31.75;47.33;101393.75;1690450;85;21077;-55
2022/07/15 06:20:44;;;;;;;2.45;1.80;;;;;;;31.93;46.89;101391.44;1690709;85;21002;-49
2022/07/15 06:23:11;;;;;;;2.98;1.70;;;;;;;32.12;46.52;101387.71;1690736;85;21030;-49
2022/07/15 06:25:40;;;;;;;4.08;1.98;;;;;;;32.33;46.08;101394.09;1690477;83;21542;-52
2022/07/15 06:28:08;;;;;;;3.55;1.60;;;;;;;32.50;45.65;101390.54;1690835;85;21062;-51
2022/07/15 06:30:35;;;;;;;3.45;1.90;;;;;;;32.61;45.40;101392.45;1690620;85;21097;-53
2022/07/15 06:33:02;;;;;;;1.98;1.57;;;;;;;32.70;45.32;101396.04;1690900;85;21017;-54
2022/07/15 06:35:30;;;;;;;2.58;1.92;;;;;;;32.71;45.33;101396.36;1690938;85;21015;-51
2022/07/15 06:37:57;;;;;;;2.20;1.70;;;;;;;32.69;45.39;101394.33;1690992;85;21053;-54
2022/07/15 06:40:24;;;;;;;3.58;1.60;;;;;;;32.63;45.64;101396.32;1690557;85;21053;-52
2022/07/15 06:42:51;;;;;;;6.05;1.55;;;;;;;32.56;45.88;101393.94;1690847;85;21049;-52
2022/07/15 06:45:20;;;;;;;4.10;1.47;;;;;;;32.48;46.20;101395.24;1696921;84;21050;-52
2022/07/15 06:47:46;;;;;;;4.22;1.50;;;;;;;32.40;46.59;101394.63;1734244;81;21055;-52
2022/07/15 06:50:15;;;;;;;2.22;1.40;;;;;;;32.31;47.01;101390.22;1740062;82;21040;-49
2022/07/15 06:52:44;;;;;;;2.15;1.47;;;;;;;32.25;47.26;101391.34;1703755;83;21517;-51
2022/07/15 06:55:11;;;;;;;4.25;1.87;;;;;;;32.19;47.39;101393.32;1697758;83;21100;-50
2022/07/15 06:57:40;;;;;;;2.20;1.42;;;;;;;32.13;47.58;101388.56;1731834;81;21051;-51
2022/07/15 07:00:11;;;;;;;1.37;1.27;;;;;;;32.07;47.75;101388.67;1732260;81;21062;-50
2022/07/15 07:02:39;;;;;;;2.92;1.65;;;;;;;32.02;47.86;101390.52;1731249;81;21082;-51
2022/07/15 07:05:08;;;;;;;5.15;2.33;;;;;;;31.98;47.94;101390.45;1732320;81;21022;-55
2022/07/15 07:07:35;;;;;;;2.10;1.75;;;;;;;31.96;48.16;101395.14;1733889;81;21529;-50
2022/07/15 07:10:04;;;;;;;1.70;1.20;;;;;;;31.96;48.23;101387.06;1734559;81;21077;-52
2022/07/15 07:12:32;;;;;;;3.00;1.40;;;;;;;32.00;48.28;101392.52;1700953;84;21478;-57
2022/07/15 07:15:02;;;;;;;2.20;1.72;;;;;;;32.04;48.24;101397.08;1704590;84;21026;-51
2022/07/15 07:17:29;;;;;;;2.55;1.50;;;;;;;32.08;48.13;101387.19;1698908;83;21038;-51
2022/07/15 07:19:56;;;;;;;2.35;1.60;;;;;;;32.12;48.19;101392.24;1700101;84;21026;-49
2022/07/15 07:22:23;;;;;;;1.80;1.32;;;;;;;32.15;48.32;101389.25;1697938;84;21081;-53
2022/07/15 07:24:51;;;;;;;1.10;1.00;;;;;;;32.21;48.19;101390.83;1691269;84;21054;-51
2022/07/15 07:27:19;;;;;;;2.35;1.37;;;;;;;32.31;47.93;101394.75;1699892;84;21027;-52
2022/07/15 07:29:46;;;;;;;3.30;1.62;;;;;;;32.41;47.69;101398.19;1698531;83;21018;-49
2022/07/15 07:32:13;;;;;;;1.82;1.25;;;;;;;32.48;47.43;101391.20;1733374;82;21070;-53
2022/07/15 07:34:41;;;;;;;3.12;1.45;;;;;;;32.52;47.31;101388.00;1729866;82;21547;-48
2022/07/15 07:37:07;;;;;;;2.35;1.27;;;;;;;32.55;47.29;101385.50;1736912;81;21071;-50
2022/07/15 07:39:34;;;;;;;2.05;1.45;;;;;;;32.57;47.25;101390.23;1699646;84;21026;-50
2022/07/15 07:42:02;;;;;;;1.40;1.30;;;;;;;32.60;47.17;101389.92;1697857;84;21038;-49
2022/07/15 07:44:29;;;;;;;1.55;1.20;;;;;;;32.62;47.09;101383.88;1698003;84;21078;-52
2022/07/15 07:46:56;;;;;;;1.80;1.40;;;;;;;32.68;46.94;101379.19;1694486;84;21034;-56
2022/07/15 07:49:22;;;;;;;2.40;1.27;;;;;;;32.74;46.85;101381.23;1700581;84;20971;-54
2022/07/15 07:51:49;;;;;;;2.22;1.47;;;;;;;32.76;46.65;101384.12;1700869;84;20994;-51
2022/07/15 07:54:17;;;;;;;8.00;1.85;;;;;;;32.78;46.54;101383.95;1699430;84;21021;-53
2022/07/15 07:56:45;;;;;;;2.80;1.90;;;;;;;32.77;46.41;101380.89;1698641;83;21069;-51
2022/07/15 07:59:11;;;;;;;2.98;1.42;;;;;;;32.73;46.42;101376.83;1733598;81;21070;-54
2022/07/15 08:01:38;;;;;;;2.08;1.40;;;;;;;32.67;46.46;101377.48;1730312;81;21043;-52
2022/07/15 08:04:05;;;;;;;1.87;1.45;;;;;;;32.62;46.69;101373.09;1736932;81;21507;-53
2022/07/15 08:06:34;;;;;;;5.42;2.12;;;;;;;32.56;46.84;101376.43;1721530;81;21070;-49
2022/07/15 08:09:01;;;;;;;3.52;1.60;;;;;;;32.51;46.86;101378.25;1699948;84;21390;-51
2022/07/15 08:11:28;;;;;;;4.50;1.50;;;;;;;32.46;47.06;101379.74;1697939;84;21526;-51
2022/07/15 08:13:56;;;;;;;2.05;1.60;;;;;;;32.41;47.29;101377.98;1731275;82;21055;-53
2022/07/15 08:16:23;;;;;;;2.00;1.30;;;;;;;32.38;47.35;101371.55;1738641;81;21026;-53
2022/07/15 08:18:50;;;;;;;2.52;1.40;;;;;;;32.36;47.46;101368.17;1731490;81;21066;-51
2022/07/15 08:21:16;;;;;;;2.30;1.45;;;;;;;32.36;47.57;101370.86;1731449;81;21476;-49
2022/07/15 08:23:43;;;;;;;4.28;1.30;;;;;;;32.38;47.48;101368.85;1724275;81;21487;-51
2022/07/15 08:26:11;;;;;;;1.52;1.20;;;;;;;32.38;47.51;101373.75;1698850;84;21068;-51
2022/07/15 08:28:38;;;;;;;1.40;1.30;;;;;;;32.36;47.51;101370.86;1697777;84;21547;-51
2022/07/15 08:31:06;;;;;;;3.30;1.82;;;;;;;32.32;47.65;101367.66;1697984;84;21026;-50
2022/07/15 08:33:33;;;;;;;2.87;1.57;;;;;;;32.30;47.70;101366.11;1698112;84;21561;-52
2022/07/15 08:36:00;;;;;;;4.10;1.30;;;;;;;32.25;47.86;101375.19;1697607;84;21038;-51
2022/07/15 08:38:27;;;;;;;2.10;1.40;;;;;;;32.20;47.94;101373.45;1699908;84;21014;-49
2022/07/15 08:40:56;;;;;;;3.30;1.60;;;;;;;32.16;48.05;101374.77;1700744;84;21535;-53
2022/07/15 08:43:23;;;;;;;3.08;1.20;;;;;;;32.14;48.06;101376.78;1700540;84;21049;-50
2022/07/15 08:45:51;;;;;;;2.27;1.45;;;;;;;32.13;48.14;101372.41;1699009;83;21069;-54
2022/07/15 08:48:18;;;;;;;4.75;1.40;;;;;;;32.12;48.04;101380.13;1699080;84;21049;-52
2022/07/15 08:50:45;;;;;;;2.95;1.20;;;;;;;32.11;48.11;101381.15;1697217;84;21002;-51
2022/07/15 08:53:12;;;;;;;1.95;1.10;;;;;;;32.08;48.14;101376.42;1697732;83;21061;-49
2022/07/15 08:55:39;;;;;;;1.65;1.32;;;;;;;32.09;48.10;101377.24;1698333;84;21030;-51
2022/07/15 08:58:06;;;;;;;2.05;1.17;;;;;;;32.11;48.14;101377.11;1692492;84;21058;-56
2022/07/15 09:00:33;;;;;;;4.03;1.67;;;;;;;32.13;48.05;101375.10;1696901;84;21066;-51
2022/07/15 09:03:01;;;;;;;1.72;1.17;;;;;;;32.18;47.79;101374.11;1697955;83;20995;-53
2022/07/15 09:05:34;;;;;;;5.17;1.60;;;;;;;32.19;47.68;101375.30;1697591;83;21050;-50
2022/07/15 09:08:19;;;;;;;1.50;1.20;;;;;;;32.22;47.68;101368.75;1698400;83;21026;-52
2022/07/15 09:10:59;;;;;;;2.30;1.75;;;;;;;32.25;47.49;101372.00;1728387;81;21046;-49
2022/07/15 09:13:38;;;;;;;1.90;1.27;;;;;;;32.25;47.49;101363.06;1727808;81;21058;-49
2022/07/15 09:16:19;;;;;;;3.77;1.40;;;;;;;32.26;47.55;101374.17;1730810;81;21015;-49
2022/07/15 09:18:46;;;;;;;2.05;1.20;;;;;;;32.26;47.57;101362.05;1724612;81;21026;-50
2022/07/15 09:21:21;;;;;;;1.72;1.40;;;;;;;32.24;47.48;101364.91;1729610;81;21060;-52
2022/07/15 09:23:50;;;;;;;1.85;0.90;;;;;;;32.23;47.36;101363.73;1721946;82;21014;-51
2022/07/15 09:33:34;;;;;;;3.15;1.40;;;;;;;32.21;47.32;101369.77;1673522;84;21061;-52
2022/07/15 09:34:24;;;;;;;2.25;1.20;;;;;;;32.19;47.30;101362.36;1673982;85;21070;-53
2022/07/15 09:36:54;;;;;;;1.82;1.37;;;;;;;32.19;47.30;101362.36;1671971;84;21034;-52
2022/07/15 09:39:23;;;;;;;;;;;;;;;32.20;47.24;101360.84;1672794;84;21535;-52
2022/07/15 09:41:50;;;;;;;1.87;1.20;;;;;;;32.23;47.11;101355.16;1670658;84;20124;-51
2022/07/15 09:44:22;;;;;;;1.85;1.22;;;;;;;32.27;46.96;101357.02;1670790;84;21058;-50
2022/07/15 09:46:56;;;;;;;2.37;1.07;;;;;;;32.28;46.85;101356.00;1665289;85;21057;-54
2022/07/15 09:49:29;;;;;;;1.27;1.10;;;;;;;32.30;46.77;101352.64;1609481;88;21100;-51
2022/07/15 09:52:11;;;;;;;1.12;1.02;;;;;;;32.33;46.61;101352.34;1613005;88;21071;-50
2022/07/15 09:54:43;;;;;;;2.22;1.05;;;;;;;32.35;46.37;101355.72;1614868;88;21064;-52
2022/07/15 09:57:14;;;;;;;1.20;1.00;;;;;;;32.35;46.28;101355.72;1574878;89;21048;-55
2022/07/15 09:59:45;;;;;;;1.70;1.00;;;;;;;32.32;46.17;101356.88;1582736;89;21541;-54
2022/07/15 10:02:15;;;;;;;1.50;1.10;;;;;;;32.30;46.19;101345.91;1551937;90;21619;-51
2022/07/15 10:04:43;;;;;;;2.17;1.15;;;;;;;32.27;46.18;101345.75;1550915;91;21070;-49
2022/07/15 10:07:11;;;;;;;1.25;0.90;;;;;;;32.25;46.20;101346.91;1550926;91;21098;-53
2022/07/15 10:09:40;;;;;;;3.60;1.20;;;;;;;32.22;46.23;101343.17;1551297;91;21078;-53
2022/07/15 10:12:19;;;;;;;1.75;1.17;;;;;;;32.20;46.29;101340.64;1540858;91;21094;-49
2022/07/15 10:15:12;;;;;;;0.80;0.80;;;;;;;32.19;46.32;101339.47;1551614;91;21098;-49
2022/07/15 10:17:48;;;;;;;4.65;1.05;;;;;;;32.18;46.33;101343.14;1551599;91;21086;-51
2022/07/15 10:20:41;;;;;;;1.32;1.10;;;;;;;32.17;46.32;101328.83;1551244;91;21729;-52
2022/07/15 10:23:43;;;;;;;1.10;0.90;;;;;;;32.15;46.37;101330.84;1436535;99;21606;-53
2022/07/15 10:26:25;;;;;;;2.62;1.00;;;;;;;32.14;46.29;101325.62;1456757;96;21194;-56
2022/07/15 10:28:57;;;;;;;1.80;1.30;;;;;;;32.11;46.36;101324.61;1446572;98;21649;-51
2022/07/15 10:31:27;;;;;;;3.70;1.10;;;;;;;32.07;46.41;101318.17;1444712;98;21171;-53
2022/07/15 10:34:14;;;;;;;1.50;0.97;;;;;;;32.04;46.56;101323.04;1444598;98;21128;-51
2022/07/15 10:36:53;;;;;;;5.37;1.30;;;;;;;32.00;46.73;101319.83;1444328;98;21136;-50
2022/07/15 10:39:26;;;;;;;1.55;0.90;;;;;;;31.98;46.72;101317.77;1444914;98;21113;-51
2022/07/15 10:42:02;;;;;;;4.80;1.32;;;;;;;31.97;46.80;101321.48;1444239;98;21105;-53
2022/07/15 10:44:33;;;;;;;1.30;0.90;;;;;;;31.97;46.85;101312.05;1459247;98;21114;-51
2022/07/15 10:47:16;;;;;;;1.63;0.93;;;;;;;31.98;46.88;101314.25;1458894;98;21170;-51
2022/07/15 10:49:48;;;;;;;3.67;1.00;;;;;;;31.99;46.85;101312.73;1458975;98;21077;-52
2022/07/15 10:52:18;;;;;;;1.87;1.50;;;;;;;32.01;46.87;101316.12;1454867;95;21081;-50
2022/07/15 10:54:59;;;;;;;4.53;1.20;;;;;;;32.02;46.85;101314.28;1458311;97;21114;-49
2022/07/15 10:57:49;;;;;;;0.90;0.90;;;;;;;32.04;46.82;101315.81;1503722;94;21262;-49
2022/07/15 11:00:33;;;;;;;2.20;1.13;;;;;;;32.04;46.88;101313.62;1549311;90;21065;-49
2022/07/15 11:03:14;;;;;;;3.45;1.60;;;;;;;32.02;46.93;101308.89;1593789;90;21066;-56
2022/07/15 11:05:54;;;;;;;1.95;1.22;;;;;;;32.01;47.07;101304.00;1583657;90;21038;-52
2022/07/15 11:08:42;;;;;;;3.35;1.00;;;;;;;32.01;47.18;101304.00;1583318;90;21015;-52
2022/07/15 11:11:20;;;;;;;4.35;1.10;;;;;;;32.02;47.17;101304.36;1533932;91;21156;-52
2022/07/15 11:13:48;;;;;;;1.77;0.90;;;;;;;32.05;47.16;101302.68;1542748;91;21096;-49
2022/07/15 11:16:18;;;;;;;1.75;1.05;;;;;;;32.08;47.14;101306.91;1539195;93;21049;-50
2022/07/15 11:18:52;;;;;;;1.50;0.90;;;;;;;32.09;47.06;101301.36;1539291;93;21085;-49
2022/07/15 11:21:19;;;;;;;2.42;1.52;;;;;;;32.12;46.93;101298.01;1538653;92;21088;-51
2022/07/15 11:23:49;;;;;;;1.65;1.00;;;;;;;32.15;46.88;101296.36;1543745;93;21124;-54
2022/07/15 11:26:16;;;;;;;1.17;0.80;;;;;;;32.17;46.82;101295.17;1541905;93;21106;-50
2022/07/15 11:28:55;;;;;;;2.55;1.20;;;;;;;32.20;46.71;101298.05;1536329;93;21096;-52
2022/07/15 11:31:24;;;;;;;2.87;0.93;;;;;;;32.22;46.63;101289.31;1536836;93;21077;-51
2022/07/15 11:33:55;;;;;;;1.82;0.90;;;;;;;32.25;46.47;101295.74;1536728;93;21108;-51
2022/07/15 11:36:22;;;;;;;1.65;0.98;;;;;;;32.27;46.32;101293.73;1536222;93;21124;-51
2022/07/15 11:38:49;;;;;;;5.45;1.30;;;;;;;32.28;46.28;101284.63;1536624;93;21145;-51
2022/07/15 11:46:53;;;;;;;2.80;1.10;;;;;;;32.19;46.34;101291.81;1536881;92;21094;-53
2022/07/15 11:52:08;;;;;;;1.87;1.20;;;;;;;32.07;46.67;101284.52;1567543;91;21095;-49
2022/07/15 11:54:36;;;;;;;1.45;0.88;;;;;;;32.02;46.75;101279.28;1595751;88;21119;-49
2022/07/15 11:57:07;;;;;;;2.42;0.93;;;;;;;31.98;46.84;101278.73;1624861;88;21099;-49